Lyndon Station, Wisconsin
Current Conditions -  °F | °C
As of 2:35 PM on Friday 28 Nov 2014 (Local Time) from KC35 Reporting Station
Overcast Overcast  
Wind Chill: 25°   Ceiling: 2300
Heat Index: 25°   Visibility: 10mi
Dew Point: 17°   Wind: 3mph
Humidity: 72%   Direction: 170°S
Pressure: 29.94"   Gusts: NA
Location:  43.71°N, 89.9°W
Report Text: KC35 282035Z AUTO 17003KT 10SM OVC023 M04/M08 A2994 RMK AO2 T10401083
Loading
Personal Weather Stations






























Interactive Weather Map New forecast layout! Learn more

10-Day Weather Forecast

Advertisements
Track Severe Weather on mobile